createdAt,value
2023-02-24T00:02:01.663Z,81.21
2023-02-24T00:04:38.679Z,81.26
2023-02-24T00:07:07.018Z,81.00
2023-02-24T00:09:33.888Z,81.18
2023-02-24T00:12:11.187Z,80.40
2023-02-24T00:14:41.699Z,80.58
2023-02-24T00:17:09.256Z,80.46
2023-02-24T00:19:37.414Z,80.28
2023-02-24T00:22:07.662Z,80.27
2023-02-24T00:24:35.987Z,80.12
2023-02-24T00:27:08.085Z,80.39
2023-02-24T00:29:37.885Z,80.30
2023-02-24T00:32:07.531Z,80.54
2023-02-24T00:34:38.117Z,80.45
2023-02-24T00:37:07.126Z,80.68
2023-02-24T00:39:35.881Z,80.65
2023-02-24T00:42:05.791Z,80.84
2023-02-24T00:44:33.354Z,81.03
2023-02-24T00:47:05.070Z,81.11
2023-02-24T00:49:33.057Z,81.22
2023-02-24T00:52:00.467Z,81.50
2023-02-24T00:54:28.510Z,81.77
2023-02-24T00:56:56.370Z,81.40
2023-02-24T00:59:26.893Z,81.63
2023-02-24T01:01:54.996Z,81.46
2023-02-24T01:04:23.255Z,81.37
2023-02-24T01:07:00.399Z,82.47
2023-02-24T01:09:31.156Z,82.29
2023-02-24T01:12:18.279Z,82.34
2023-02-24T01:14:47.949Z,82.56
2023-02-24T01:17:18.453Z,82.63
2023-02-24T01:19:49.394Z,82.85
2023-02-24T01:22:19.822Z,83.69
2023-02-24T01:24:48.440Z,83.95
2023-02-24T01:27:19.056Z,84.15
2023-02-24T01:29:47.714Z,83.96
2023-02-24T01:32:21.621Z,84.13
2023-02-24T01:34:52.276Z,84.33
2023-02-24T01:37:20.068Z,84.65
2023-02-24T01:39:48.030Z,84.64
2023-02-24T01:42:20.080Z,85.17
2023-02-24T01:44:47.081Z,85.44
2023-02-24T01:47:16.734Z,85.47
2023-02-24T01:49:51.751Z,85.59
2023-02-24T01:52:35.958Z,85.89
2023-02-24T01:55:16.875Z,85.93
2023-02-24T01:57:46.279Z,85.60
2023-02-24T02:00:42.128Z,85.47
2023-02-24T02:03:37.284Z,85.73
2023-02-24T02:06:13.447Z,86.57
2023-02-24T02:08:42.647Z,86.17
2023-02-24T02:11:23.172Z,86.17
2023-02-24T02:13:52.745Z,86.00
2023-02-24T02:16:48.018Z,86.23
2023-02-24T02:19:55.641Z,87.05
2023-02-24T02:23:00.652Z,87.00
2023-02-24T02:25:42.738Z,86.71
2023-02-24T02:28:21.341Z,87.40
2023-02-24T02:31:15.912Z,87.04
2023-02-24T02:34:40.197Z,87.44
2023-02-24T02:37:33.562Z,87.68
2023-02-24T02:40:18.746Z,88.00
2023-02-24T02:43:04.324Z,87.66
2023-02-24T02:45:47.993Z,88.30
2023-02-24T02:48:27.658Z,87.93
2023-02-24T02:51:11.548Z,88.39
2023-02-24T02:53:52.950Z,88.51
2023-02-24T02:56:27.203Z,88.46
2023-02-24T02:58:56.997Z,88.51
2023-02-24T03:01:29.204Z,88.50
2023-02-24T03:04:01.934Z,88.67
2023-02-24T03:06:34.777Z,88.44
2023-02-24T03:09:16.259Z,88.58
2023-02-24T03:11:59.597Z,88.64
2023-02-24T03:14:31.092Z,88.79
2023-02-24T03:17:00.087Z,88.59
2023-02-24T03:19:37.475Z,88.76
2023-02-24T03:22:15.082Z,88.62
2023-02-24T03:24:44.400Z,88.85
2023-02-24T03:27:23.243Z,89.55
2023-02-24T03:29:56.188Z,89.24
2023-02-24T03:32:51.509Z,89.27
2023-02-24T03:35:24.834Z,89.20
2023-02-24T03:37:55.417Z,89.76
2023-02-24T03:40:28.654Z,89.86
2023-02-24T03:43:05.995Z,90.12
2023-02-24T03:45:38.199Z,90.83
2023-02-24T03:48:08.595Z,91.32
2023-02-24T03:50:39.266Z,91.21
2023-02-24T03:53:46.820Z,92.51
2023-02-24T03:56:34.687Z,91.91
2023-02-24T03:59:18.963Z,91.96
2023-02-24T04:02:04.753Z,91.96
2023-02-24T04:05:05.981Z,92.09
2023-02-24T04:08:01.206Z,92.14
2023-02-24T04:10:58.934Z,92.22
2023-02-24T04:13:59.950Z,92.24
2023-02-24T04:16:36.638Z,92.34
2023-02-24T04:19:14.453Z,92.59
2023-02-24T04:21:44.797Z,92.85
2023-02-24T04:24:16.004Z,93.64
2023-02-24T04:26:46.035Z,94.05
2023-02-24T04:29:23.127Z,93.63
2023-02-24T04:32:01.363Z,93.68
2023-02-24T04:34:32.595Z,94.41
2023-02-24T04:37:02.517Z,94.48
2023-02-24T04:39:32.336Z,94.93
2023-02-24T04:42:01.841Z,95.28
2023-02-24T04:44:29.296Z,96.09
2023-02-24T04:46:56.700Z,96.21
2023-02-24T04:49:23.814Z,96.64
2023-02-24T04:51:51.719Z,97.12
2023-02-24T04:54:20.938Z,97.75
2023-02-24T04:56:51.062Z,97.55
2023-02-24T04:59:20.243Z,97.54
2023-02-24T05:01:47.785Z,97.95
2023-02-24T05:04:14.921Z,98.24
2023-02-24T05:06:44.196Z,98.18
2023-02-24T05:09:19.610Z,98.73
2023-02-24T05:11:49.771Z,98.78
2023-02-24T05:14:21.164Z,98.60
2023-02-24T05:16:49.775Z,100.00
2023-02-24T05:19:38.969Z,100.00
2023-02-24T05:22:07.580Z,100.00
2023-02-24T05:24:34.867Z,100.00
2023-02-24T05:27:04.034Z,100.00
2023-02-24T05:29:35.765Z,100.00
2023-02-24T05:32:05.843Z,100.00
2023-02-24T05:34:34.096Z,100.00
2023-02-24T05:37:10.849Z,100.00
2023-02-24T05:39:38.201Z,100.00
2023-02-24T05:42:06.997Z,100.00
2023-02-24T05:44:35.885Z,100.00
2023-02-24T05:47:05.726Z,100.00
2023-02-24T05:49:35.826Z,100.00
2023-02-24T05:52:09.051Z,100.00
2023-02-24T05:54:40.763Z,100.00
2023-02-24T05:57:12.191Z,100.00
2023-02-24T05:59:44.798Z,100.00
2023-02-24T06:02:14.964Z,100.00
2023-02-24T06:04:51.481Z,100.00
2023-02-24T06:07:25.338Z,100.00
2023-02-24T06:09:57.245Z,100.00
2023-02-24T06:12:30.267Z,100.00
2023-02-24T06:15:00.228Z,100.00
2023-02-24T06:17:28.773Z,100.00
2023-02-24T06:19:55.693Z,100.00
2023-02-24T06:22:25.954Z,100.00
2023-02-24T06:24:55.617Z,100.00
2023-02-24T06:27:25.270Z,100.00
2023-02-24T06:29:54.931Z,100.00
2023-02-24T06:32:25.591Z,100.00
2023-02-24T06:34:54.115Z,100.00
2023-02-24T06:37:23.536Z,100.00
2023-02-24T06:39:50.631Z,100.00
2023-02-24T06:42:17.775Z,100.00
2023-02-24T06:44:44.749Z,100.00
2023-02-24T06:47:14.803Z,100.00
2023-02-24T06:49:43.081Z,100.00
2023-02-24T06:52:11.902Z,100.00
2023-02-24T06:54:39.056Z,100.00
2023-02-24T06:57:06.217Z,100.00
2023-02-24T06:59:33.101Z,100.00
2023-02-24T07:02:04.227Z,100.00
2023-02-24T07:04:31.217Z,100.00
2023-02-24T07:07:03.559Z,100.00
2023-02-24T07:09:32.251Z,100.00
2023-02-24T07:12:02.885Z,100.00
2023-02-24T07:14:31.565Z,100.00
2023-02-24T07:16:59.866Z,100.00
2023-02-24T07:19:32.506Z,100.00
2023-02-24T07:22:03.286Z,100.00
2023-02-24T07:24:36.595Z,100.00
2023-02-24T07:27:13.068Z,100.00
2023-02-24T07:29:40.169Z,100.00
2023-02-24T07:32:09.635Z,100.00
2023-02-24T07:34:40.695Z,100.00
2023-02-24T07:37:09.476Z,100.00
2023-02-24T07:39:39.485Z,100.00
2023-02-24T07:42:09.635Z,100.00
2023-02-24T07:44:36.489Z,100.00
2023-02-24T07:47:08.161Z,100.00
2023-02-24T07:49:35.636Z,100.00
2023-02-24T07:52:02.809Z,100.00
2023-02-24T07:54:30.693Z,100.00
2023-02-24T07:56:59.654Z,100.00
2023-02-24T07:59:33.579Z,100.00
2023-02-24T08:02:05.084Z,100.00
2023-02-24T08:04:33.525Z,100.00
2023-02-24T08:07:03.659Z,100.00
2023-02-24T08:09:46.961Z,100.00
2023-02-24T08:12:18.313Z,100.00
2023-02-24T08:14:51.119Z,100.00
2023-02-24T08:17:24.106Z,100.00
2023-02-24T08:20:11.842Z,100.00
2023-02-24T08:22:44.495Z,100.00
2023-02-24T08:25:18.907Z,100.00
2023-02-24T08:28:07.426Z,100.00
2023-02-24T08:30:39.570Z,100.00
2023-02-24T08:33:11.192Z,100.00
2023-02-24T08:35:45.119Z,100.00
2023-02-24T08:38:19.252Z,100.00
2023-02-24T08:40:51.030Z,100.00
2023-02-24T08:43:31.050Z,100.00
2023-02-24T08:46:21.601Z,100.00
2023-02-24T08:48:57.997Z,100.00
2023-02-24T08:51:31.175Z,100.00
2023-02-24T08:54:11.717Z,100.00
2023-02-24T08:56:43.931Z,100.00
2023-02-24T08:59:43.235Z,100.00
2023-02-24T09:02:23.656Z,100.00
2023-02-24T09:04:53.455Z,100.00
2023-02-24T09:07:35.631Z,100.00
2023-02-24T09:10:18.256Z,100.00
2023-02-24T09:12:45.493Z,100.00
2023-02-24T09:15:15.582Z,100.00
2023-02-24T09:17:45.044Z,100.00
2023-02-24T09:20:33.442Z,100.00
2023-02-24T09:23:09.756Z,100.00
2023-02-24T09:25:49.805Z,100.00
2023-02-24T09:28:25.162Z,100.00
2023-02-24T09:30:55.988Z,100.00
2023-02-24T09:33:39.676Z,100.00
2023-02-24T09:36:10.836Z,100.00
2023-02-24T09:39:01.889Z,100.00
2023-02-24T09:41:54.386Z,100.00
2023-02-24T09:44:33.671Z,100.00
2023-02-24T09:47:11.098Z,100.00
2023-02-24T09:50:51.266Z,100.00
2023-02-24T09:53:17.679Z,100.00
2023-02-24T09:56:06.683Z,100.00
2023-02-24T09:59:10.512Z,100.00
2023-02-24T10:01:48.712Z,100.00
2023-02-24T10:04:21.412Z,100.00
2023-02-24T10:06:59.857Z,100.00
2023-02-24T10:09:41.657Z,100.00
2023-02-24T10:12:19.815Z,100.00
2023-02-24T10:15:46.525Z,100.00
2023-02-24T10:18:29.411Z,100.00
2023-02-24T10:21:49.566Z,100.00
2023-02-24T10:24:30.270Z,100.00
2023-02-24T10:27:08.949Z,100.00
2023-02-24T10:30:01.285Z,100.00
2023-02-24T10:32:41.524Z,100.00
2023-02-24T10:35:19.104Z,100.00
2023-02-24T10:37:47.203Z,100.00
2023-02-24T10:40:26.643Z,100.00
2023-02-24T10:43:11.063Z,100.00
2023-02-24T10:45:45.591Z,100.00
2023-02-24T10:48:42.622Z,99.73
2023-02-24T10:51:22.921Z,99.82
2023-02-24T10:53:53.549Z,99.55
2023-02-24T10:56:27.163Z,99.33
2023-02-24T10:59:29.292Z,98.60
2023-02-24T11:02:16.933Z,98.40
2023-02-24T11:04:54.261Z,98.25
2023-02-24T11:07:44.156Z,98.36
2023-02-24T11:10:26.354Z,97.46
2023-02-24T11:13:14.418Z,97.38
2023-02-24T11:16:07.875Z,98.01
2023-02-24T11:18:35.136Z,97.67
2023-02-24T11:21:09.461Z,98.14
2023-02-24T11:23:44.359Z,97.54
2023-02-24T11:26:35.145Z,96.18
2023-02-24T11:29:26.138Z,96.05
2023-02-24T11:32:15.549Z,96.25
2023-02-24T11:34:59.859Z,96.14
2023-02-24T11:37:43.430Z,95.46
2023-02-24T11:40:29.679Z,95.03
2023-02-24T11:43:07.431Z,94.72
2023-02-24T11:45:39.494Z,94.62
2023-02-24T11:48:29.814Z,94.29
2023-02-24T11:51:06.653Z,94.37
2023-02-24T11:54:01.520Z,94.33
2023-02-24T11:56:34.500Z,94.54
2023-02-24T11:59:24.242Z,94.74
2023-02-24T12:02:11.589Z,95.09
2023-02-24T12:04:51.279Z,96.49
2023-02-24T12:07:58.922Z,96.16
2023-02-24T12:10:36.776Z,95.96
2023-02-24T12:13:46.252Z,94.37
2023-02-24T12:16:35.596Z,93.86
2023-02-24T12:19:20.061Z,94.26
2023-02-24T12:22:00.224Z,94.31
2023-02-24T12:24:27.089Z,94.06
2023-02-24T12:27:11.369Z,93.77
2023-02-24T12:29:55.028Z,93.97
2023-02-24T12:32:47.299Z,94.02
2023-02-24T12:35:37.858Z,94.00
2023-02-24T12:38:29.590Z,94.59
2023-02-24T12:41:36.982Z,93.87
2023-02-24T12:44:37.856Z,92.98
2023-02-24T12:47:17.653Z,88.64
2023-02-24T12:50:18.855Z,87.17
2023-02-24T12:53:19.492Z,88.77
2023-02-24T12:56:19.213Z,92.51
2023-02-24T12:58:51.250Z,92.43
2023-02-24T13:01:27.563Z,91.13
2023-02-24T13:04:13.114Z,89.42
2023-02-24T13:06:53.358Z,88.05
2023-02-24T13:09:47.293Z,88.30
2023-02-24T13:12:55.185Z,83.80
2023-02-24T13:15:31.524Z,84.80
2023-02-24T13:17:59.386Z,85.90
2023-02-24T13:20:36.996Z,88.44
2023-02-24T13:23:20.158Z,89.40
2023-02-24T13:25:55.078Z,91.19
2023-02-24T13:28:33.374Z,92.92
2023-02-24T13:31:01.152Z,93.74
2023-02-24T13:33:44.843Z,95.48
2023-02-24T13:36:24.320Z,96.58
2023-02-24T13:39:03.787Z,96.86
2023-02-24T13:41:30.489Z,98.41
2023-02-24T13:44:28.740Z,98.25
2023-02-24T13:47:35.923Z,99.44
2023-02-24T13:50:31.489Z,98.43
2023-02-24T13:53:34.778Z,98.70
2023-02-24T13:56:14.066Z,99.25
2023-02-24T13:59:05.206Z,99.73
2023-02-24T14:01:46.230Z,100.00
2023-02-24T14:04:35.498Z,100.00
2023-02-24T14:07:12.235Z,100.00
2023-02-24T14:09:46.965Z,100.00
2023-02-24T14:12:25.885Z,100.00
2023-02-24T14:14:53.927Z,100.00
2023-02-24T14:17:36.221Z,100.00
2023-02-24T14:20:19.309Z,99.96
2023-02-24T14:22:51.036Z,99.98
2023-02-24T14:25:18.321Z,99.07
2023-02-24T14:27:50.842Z,98.78
2023-02-24T14:30:34.616Z,98.93
2023-02-24T14:33:03.648Z,99.93
2023-02-24T14:35:46.125Z,99.59
2023-02-24T14:38:39.966Z,99.07
2023-02-24T14:41:20.258Z,98.88
2023-02-24T14:43:47.096Z,98.73
2023-02-24T14:46:14.078Z,98.17
2023-02-24T14:48:40.936Z,98.21
2023-02-24T14:51:23.923Z,97.91
2023-02-24T14:53:56.860Z,97.30
2023-02-24T14:56:33.181Z,97.94
2023-02-24T14:59:14.763Z,97.13
2023-02-24T15:01:48.109Z,96.92
2023-02-24T15:04:37.712Z,96.75
2023-02-24T15:07:21.590Z,96.58
2023-02-24T15:09:50.137Z,97.18
2023-02-24T15:12:32.717Z,96.78
2023-02-24T15:15:08.244Z,96.57
2023-02-24T15:17:40.757Z,96.86
2023-02-24T15:20:32.144Z,96.98
2023-02-24T15:23:00.108Z,96.99
2023-02-24T15:25:42.389Z,96.68
2023-02-24T15:28:27.109Z,96.29
2023-02-24T15:31:18.232Z,96.23
2023-02-24T15:33:54.973Z,97.63
2023-02-24T15:36:26.336Z,97.32
2023-02-24T15:39:02.144Z,97.50
2023-02-24T15:41:46.330Z,97.57
2023-02-24T15:44:27.713Z,97.49
2023-02-24T15:46:56.736Z,97.18
2023-02-24T15:49:24.110Z,97.05
2023-02-24T15:51:53.682Z,96.90
2023-02-24T15:54:32.397Z,96.40
2023-02-24T15:57:01.122Z,94.53
2023-02-24T15:59:29.354Z,93.38
2023-02-24T16:01:56.188Z,93.35
2023-02-24T16:04:24.314Z,91.77
2023-02-24T16:06:55.752Z,89.40
2023-02-24T16:09:28.543Z,87.88
2023-02-24T16:11:55.828Z,83.46
2023-02-24T16:14:23.032Z,82.40
2023-02-24T16:16:50.011Z,80.32
2023-02-24T16:19:17.127Z,80.46
2023-02-24T16:21:44.663Z,80.43
2023-02-24T16:24:11.481Z,81.24
2023-02-24T16:26:41.010Z,80.13
2023-02-24T16:29:14.486Z,80.77
2023-02-24T16:31:42.402Z,81.17
2023-02-24T16:34:16.211Z,81.53
2023-02-24T16:36:44.269Z,81.03
2023-02-24T16:39:14.390Z,77.16
2023-02-24T16:41:41.402Z,75.19
2023-02-24T16:44:09.807Z,76.21
2023-02-24T16:46:40.261Z,75.07
2023-02-24T16:49:10.491Z,75.26
2023-02-24T16:51:39.206Z,74.91
2023-02-24T16:54:06.253Z,74.35
2023-02-24T16:56:33.108Z,74.59
2023-02-24T16:58:59.944Z,74.23
2023-02-24T17:01:27.085Z,74.32
2023-02-24T17:03:54.404Z,74.08
2023-02-24T17:06:22.539Z,73.18
2023-02-24T17:08:50.998Z,73.21
2023-02-24T17:11:20.751Z,73.35
2023-02-24T17:13:47.605Z,74.09
2023-02-24T17:16:17.620Z,75.03
2023-02-24T17:18:47.400Z,75.07
2023-02-24T17:21:20.914Z,76.00
2023-02-24T17:26:32.615Z,76.84
2023-02-24T17:29:05.600Z,77.42
2023-02-24T17:31:33.232Z,77.95
2023-02-24T17:34:00.612Z,77.97
2023-02-24T17:36:37.094Z,78.14
2023-02-24T17:39:05.665Z,78.44
2023-02-24T17:41:36.210Z,78.57
2023-02-24T17:44:04.142Z,78.88
2023-02-24T17:46:31.201Z,78.64
2023-02-24T17:48:57.988Z,77.48
2023-02-24T17:51:24.774Z,77.34
2023-02-24T17:53:51.852Z,77.45
2023-02-24T17:56:18.665Z,77.23
2023-02-24T17:58:45.435Z,77.33
2023-02-24T18:01:12.885Z,77.35
2023-02-24T18:03:39.972Z,77.32
2023-02-24T18:06:11.701Z,76.97
2023-02-24T18:08:43.175Z,77.54
2023-02-24T18:11:17.056Z,77.72
2023-02-24T18:13:51.661Z,77.88
2023-02-24T18:16:20.260Z,78.11
2023-02-24T18:18:47.316Z,78.28
2023-02-24T18:21:17.934Z,78.48
2023-02-24T18:23:46.433Z,78.80
2023-02-24T18:26:13.450Z,79.01
2023-02-24T18:28:41.027Z,79.40
2023-02-24T18:31:18.400Z,79.53
2023-02-24T18:33:49.129Z,79.66
2023-02-24T18:36:26.919Z,80.14
2023-02-24T18:39:03.141Z,80.31
2023-02-24T18:41:35.914Z,80.86
2023-02-24T18:44:24.293Z,80.69
2023-02-24T18:46:51.113Z,81.08
2023-02-24T18:49:28.237Z,81.41
2023-02-24T18:51:55.124Z,81.74
2023-02-24T18:54:21.984Z,82.03
2023-02-24T18:56:48.841Z,82.21
2023-02-24T18:59:15.707Z,82.58
2023-02-24T19:01:42.864Z,82.96
2023-02-24T19:04:09.905Z,83.05
2023-02-24T19:06:37.027Z,83.12
2023-02-24T19:09:10.917Z,83.26
2023-02-24T19:11:40.103Z,83.46
2023-02-24T19:14:07.423Z,83.64
2023-02-24T19:16:34.781Z,83.84
2023-02-24T19:19:01.766Z,83.76
2023-02-24T19:21:31.641Z,84.22
2023-02-24T19:24:08.449Z,84.52
2023-02-24T19:26:35.460Z,84.81
2023-02-24T19:29:03.953Z,85.25
2023-02-24T19:31:33.252Z,85.43
2023-02-24T19:34:10.534Z,85.67
2023-02-24T19:36:39.040Z,86.24
2023-02-24T19:39:09.882Z,86.94
2023-02-24T19:41:37.964Z,86.68
2023-02-24T19:44:04.837Z,87.35
2023-02-24T19:46:34.158Z,87.21
2023-02-24T19:49:02.154Z,87.25
2023-02-24T19:51:29.775Z,87.82
2023-02-24T19:53:59.604Z,88.46
2023-02-24T19:56:29.678Z,89.16
2023-02-24T19:58:59.014Z,88.66
2023-02-24T20:01:28.221Z,90.22
2023-02-24T20:04:01.617Z,89.12
2023-02-24T20:06:41.539Z,90.21
2023-02-24T20:09:15.678Z,90.87
2023-02-24T20:11:44.942Z,91.22
2023-02-24T20:14:13.317Z,91.17
2023-02-24T20:16:41.913Z,91.04
2023-02-24T20:19:11.682Z,91.04
2023-02-24T20:21:39.796Z,90.80
2023-02-24T20:24:14.531Z,90.41
2023-02-24T20:26:46.391Z,91.08
2023-02-24T20:29:15.215Z,91.52
2023-02-24T20:31:42.915Z,93.00
2023-02-24T20:34:10.815Z,91.94
2023-02-24T20:36:38.023Z,92.26
2023-02-24T20:39:06.984Z,92.32
2023-02-24T20:41:34.498Z,92.34
2023-02-24T20:44:01.768Z,92.29
2023-02-24T20:46:31.980Z,92.12
2023-02-24T20:49:06.631Z,92.38
2023-02-24T20:51:37.643Z,92.20
2023-02-24T20:54:06.601Z,92.16
2023-02-24T20:56:37.045Z,92.21
2023-02-24T20:59:19.310Z,91.91
2023-02-24T21:01:48.486Z,91.68
2023-02-24T21:04:19.215Z,91.45
2023-02-24T21:06:48.234Z,91.10
2023-02-24T21:09:16.224Z,91.32
2023-02-24T21:11:43.238Z,90.88
2023-02-24T21:14:15.928Z,90.73
2023-02-24T21:16:42.934Z,90.29
2023-02-24T21:19:09.769Z,89.90
2023-02-24T21:21:36.598Z,89.05
2023-02-24T21:24:03.672Z,88.74
2023-02-24T21:26:30.532Z,87.91
2023-02-24T21:28:59.381Z,87.58
2023-02-24T21:31:27.145Z,87.25
2023-02-24T21:33:55.350Z,86.99
2023-02-24T21:36:26.445Z,86.71
2023-02-24T21:38:54.469Z,86.30
2023-02-24T21:41:23.066Z,86.15
2023-02-24T21:43:55.208Z,86.10
2023-02-24T21:46:23.050Z,85.88
2023-02-24T21:48:57.718Z,85.50
2023-02-24T21:51:26.611Z,85.53
2023-02-24T21:53:57.072Z,85.80
2023-02-24T21:56:29.503Z,85.59
2023-02-24T21:59:03.522Z,85.65
2023-02-24T22:01:35.209Z,85.69
2023-02-24T22:04:07.521Z,85.51
2023-02-24T22:06:36.226Z,85.68
2023-02-24T22:09:06.983Z,85.45
2023-02-24T22:11:36.883Z,85.58
2023-02-24T22:14:08.121Z,85.93
2023-02-24T22:16:35.256Z,85.50
2023-02-24T22:19:02.087Z,85.24
2023-02-24T22:21:30.543Z,85.15
2023-02-24T22:24:00.847Z,85.48
2023-02-24T22:26:30.534Z,85.36
2023-02-24T22:28:59.021Z,85.34
2023-02-24T22:31:30.803Z,85.14
2023-02-24T22:33:58.875Z,85.05
2023-02-24T22:36:30.993Z,85.08
2023-02-24T22:39:00.205Z,84.48
2023-02-24T22:41:33.848Z,84.17
2023-02-24T22:44:03.322Z,83.60
2023-02-24T22:46:34.800Z,83.91
2023-02-24T22:49:02.200Z,83.00
2023-02-24T22:51:29.192Z,82.94
2023-02-24T22:53:56.476Z,83.10
2023-02-24T22:56:27.082Z,82.58
2023-02-24T22:58:54.697Z,81.91
2023-02-24T23:01:31.437Z,82.02
2023-02-24T23:04:04.257Z,81.53
2023-02-24T23:06:31.553Z,81.41
2023-02-24T23:09:01.009Z,81.77
2023-02-24T23:11:34.999Z,82.06
2023-02-24T23:14:06.156Z,82.11
2023-02-24T23:16:35.350Z,82.42
2023-02-24T23:19:13.321Z,82.49
2023-02-24T23:21:43.426Z,82.79
2023-02-24T23:24:12.758Z,83.12
2023-02-24T23:26:47.719Z,83.20
2023-02-24T23:29:17.807Z,83.33
2023-02-24T23:31:46.520Z,83.07
2023-02-24T23:34:14.650Z,83.14
2023-02-24T23:36:46.363Z,83.07
2023-02-24T23:39:18.391Z,83.44
2023-02-24T23:41:45.594Z,83.38
2023-02-24T23:44:12.865Z,83.25
2023-02-24T23:46:41.827Z,83.22
2023-02-24T23:49:09.039Z,82.91
2023-02-24T23:51:47.146Z,82.84
2023-02-24T23:54:15.969Z,82.51
2023-02-24T23:56:42.991Z,81.98
2023-02-24T23:59:10.036Z,82.02
